sensor_id;sensor_type;location;lat;lon;timestamp;P1;durP1;ratioP1;P2;durP2;ratioP2
47365;SDS011;33105;47.964;7.982;2022-07-21T00:00:55;18.08;;;14.85;;
47365;SDS011;33105;47.964;7.982;2022-07-21T00:03:57;19.23;;;14.75;;
47365;SDS011;33105;47.964;7.982;2022-07-21T00:06:58;18.08;;;15.88;;
47365;SDS011;33105;47.964;7.982;2022-07-21T00:09:59;19.80;;;17.20;;
47365;SDS011;33105;47.964;7.982;2022-07-21T00:13:01;21.77;;;19.08;;
47365;SDS011;33105;47.964;7.982;2022-07-21T00:16:02;21.83;;;17.98;;
47365;SDS011;33105;47.964;7.982;2022-07-21T00:19:03;21.58;;;18.55;;
47365;SDS011;33105;47.964;7.982;2022-07-21T00:22:05;22.90;;;19.90;;
47365;SDS011;33105;47.964;7.982;2022-07-21T00:25:06;24.10;;;18.67;;
47365;SDS011;33105;47.964;7.982;2022-07-21T00:28:08;20.50;;;17.55;;
47365;SDS011;33105;47.964;7.982;2022-07-21T00:31:09;25.60;;;19.58;;
47365;SDS011;33105;47.964;7.982;2022-07-21T00:34:11;25.33;;;20.23;;
47365;SDS011;33105;47.964;7.982;2022-07-21T00:37:12;25.95;;;20.17;;
47365;SDS011;33105;47.964;7.982;2022-07-21T00:40:13;23.40;;;20.33;;
47365;SDS011;33105;47.964;7.982;2022-07-21T00:43:16;27.75;;;22.02;;
47365;SDS011;33105;47.964;7.982;2022-07-21T00:46:19;26.20;;;22.65;;
47365;SDS011;33105;47.964;7.982;2022-07-21T00:49:21;24.13;;;21.00;;
47365;SDS011;33105;47.964;7.982;2022-07-21T00:52:23;23.52;;;20.15;;
47365;SDS011;33105;47.964;7.982;2022-07-21T00:55:24;26.88;;;20.83;;
47365;SDS011;33105;47.964;7.982;2022-07-21T00:58:25;28.60;;;21.30;;
47365;SDS011;33105;47.964;7.982;2022-07-21T01:01:26;26.75;;;20.75;;
47365;SDS011;33105;47.964;7.982;2022-07-21T01:04:28;22.08;;;19.67;;
47365;SDS011;33105;47.964;7.982;2022-07-21T01:07:29;22.77;;;18.95;;
47365;SDS011;33105;47.964;7.982;2022-07-21T01:10:30;27.48;;;20.38;;
47365;SDS011;33105;47.964;7.982;2022-07-21T01:13:33;21.27;;;18.40;;
47365;SDS011;33105;47.964;7.982;2022-07-21T01:16:34;21.90;;;19.55;;
47365;SDS011;33105;47.964;7.982;2022-07-21T01:19:35;25.08;;;18.48;;
47365;SDS011;33105;47.964;7.982;2022-07-21T01:22:38;23.05;;;20.10;;
47365;SDS011;33105;47.964;7.982;2022-07-21T01:25:46;25.80;;;19.75;;
47365;SDS011;33105;47.964;7.982;2022-07-21T01:28:51;25.90;;;21.10;;
47365;SDS011;33105;47.964;7.982;2022-07-21T01:31:53;23.77;;;19.63;;
47365;SDS011;33105;47.964;7.982;2022-07-21T01:34:54;24.70;;;18.65;;
47365;SDS011;33105;47.964;7.982;2022-07-21T01:37:55;21.73;;;18.90;;
47365;SDS011;33105;47.964;7.982;2022-07-21T01:40:59;19.77;;;17.67;;
47365;SDS011;33105;47.964;7.982;2022-07-21T01:44:19;19.42;;;17.38;;
47365;SDS011;33105;47.964;7.982;2022-07-21T01:47:21;23.95;;;18.33;;
47365;SDS011;33105;47.964;7.982;2022-07-21T01:50:23;22.83;;;20.15;;
47365;SDS011;33105;47.964;7.982;2022-07-21T01:53:27;22.80;;;19.95;;
47365;SDS011;33105;47.964;7.982;2022-07-21T01:56:28;22.45;;;19.80;;
47365;SDS011;33105;47.964;7.982;2022-07-21T01:59:29;28.08;;;19.55;;
47365;SDS011;33105;47.964;7.982;2022-07-21T02:02:31;24.63;;;20.65;;
47365;SDS011;33105;47.964;7.982;2022-07-21T02:05:32;22.92;;;19.17;;
47365;SDS011;33105;47.964;7.982;2022-07-21T02:08:33;23.95;;;19.38;;
47365;SDS011;33105;47.964;7.982;2022-07-21T02:11:34;21.48;;;19.10;;
47365;SDS011;33105;47.964;7.982;2022-07-21T02:14:35;22.45;;;18.70;;
47365;SDS011;33105;47.964;7.982;2022-07-21T02:17:37;22.33;;;18.63;;
47365;SDS011;33105;47.964;7.982;2022-07-21T02:20:38;23.55;;;20.23;;
47365;SDS011;33105;47.964;7.982;2022-07-21T02:23:39;23.95;;;19.85;;
47365;SDS011;33105;47.964;7.982;2022-07-21T02:26:40;23.80;;;20.83;;
47365;SDS011;33105;47.964;7.982;2022-07-21T02:29:42;28.15;;;20.35;;
47365;SDS011;33105;47.964;7.982;2022-07-21T02:32:43;22.75;;;20.15;;
47365;SDS011;33105;47.964;7.982;2022-07-21T02:35:44;26.52;;;22.60;;
47365;SDS011;33105;47.964;7.982;2022-07-21T02:38:46;23.80;;;21.30;;
47365;SDS011;33105;47.964;7.982;2022-07-21T02:41:47;23.83;;;21.17;;
47365;SDS011;33105;47.964;7.982;2022-07-21T02:44:48;23.42;;;19.48;;
47365;SDS011;33105;47.964;7.982;2022-07-21T02:51:10;18.33;;;16.35;;
47365;SDS011;33105;47.964;7.982;2022-07-21T02:54:11;18.98;;;16.83;;
47365;SDS011;33105;47.964;7.982;2022-07-21T02:57:12;20.88;;;18.58;;
47365;SDS011;33105;47.964;7.982;2022-07-21T03:00:13;19.85;;;17.85;;
47365;SDS011;33105;47.964;7.982;2022-07-21T03:03:15;20.70;;;17.35;;
47365;SDS011;33105;47.964;7.982;2022-07-21T03:06:17;21.25;;;19.05;;
47365;SDS011;33105;47.964;7.982;2022-07-21T03:09:18;20.65;;;18.55;;
47365;SDS011;33105;47.964;7.982;2022-07-21T03:12:19;22.67;;;18.55;;
47365;SDS011;33105;47.964;7.982;2022-07-21T03:15:20;21.20;;;18.73;;
47365;SDS011;33105;47.964;7.982;2022-07-21T03:18:22;20.02;;;17.83;;
47365;SDS011;33105;47.964;7.982;2022-07-21T03:21:23;18.65;;;16.70;;
47365;SDS011;33105;47.964;7.982;2022-07-21T03:24:25;19.80;;;17.60;;
47365;SDS011;33105;47.964;7.982;2022-07-21T03:27:26;21.73;;;17.90;;
47365;SDS011;33105;47.964;7.982;2022-07-21T03:30:27;19.75;;;17.63;;
47365;SDS011;33105;47.964;7.982;2022-07-21T03:33:29;20.60;;;17.15;;
47365;SDS011;33105;47.964;7.982;2022-07-21T03:36:30;21.67;;;16.50;;
47365;SDS011;33105;47.964;7.982;2022-07-21T03:39:32;21.17;;;16.98;;
47365;SDS011;33105;47.964;7.982;2022-07-21T03:42:33;20.40;;;16.15;;
47365;SDS011;33105;47.964;7.982;2022-07-21T03:45:35;20.83;;;16.17;;
47365;SDS011;33105;47.964;7.982;2022-07-21T03:48:36;18.05;;;15.77;;
47365;SDS011;33105;47.964;7.982;2022-07-21T03:51:37;18.40;;;15.40;;
47365;SDS011;33105;47.964;7.982;2022-07-21T03:54:39;18.85;;;15.30;;
47365;SDS011;33105;47.964;7.982;2022-07-21T03:57:41;22.52;;;15.88;;
47365;SDS011;33105;47.964;7.982;2022-07-21T04:00:44;20.55;;;15.48;;
47365;SDS011;33105;47.964;7.982;2022-07-21T04:03:46;18.48;;;14.95;;
47365;SDS011;33105;47.964;7.982;2022-07-21T04:06:47;18.38;;;15.60;;
47365;SDS011;33105;47.964;7.982;2022-07-21T04:09:48;18.92;;;14.57;;
47365;SDS011;33105;47.964;7.982;2022-07-21T04:12:50;17.23;;;15.35;;
47365;SDS011;33105;47.964;7.982;2022-07-21T04:15:51;17.27;;;15.35;;
47365;SDS011;33105;47.964;7.982;2022-07-21T04:18:52;17.83;;;15.88;;
47365;SDS011;33105;47.964;7.982;2022-07-21T04:21:54;24.77;;;17.67;;
47365;SDS011;33105;47.964;7.982;2022-07-21T04:24:55;22.08;;;17.85;;
47365;SDS011;33105;47.964;7.982;2022-07-21T04:27:56;19.50;;;16.20;;
47365;SDS011;33105;47.964;7.982;2022-07-21T04:30:58;20.35;;;17.08;;
47365;SDS011;33105;47.964;7.982;2022-07-21T04:33:59;18.55;;;15.77;;
47365;SDS011;33105;47.964;7.982;2022-07-21T04:37:01;18.00;;;16.05;;
47365;SDS011;33105;47.964;7.982;2022-07-21T04:40:03;23.20;;;16.48;;
47365;SDS011;33105;47.964;7.982;2022-07-21T04:43:07;18.20;;;16.23;;
47365;SDS011;33105;47.964;7.982;2022-07-21T04:46:08;19.67;;;15.75;;
47365;SDS011;33105;47.964;7.982;2022-07-21T04:49:10;19.90;;;16.02;;
47365;SDS011;33105;47.964;7.982;2022-07-21T04:52:11;20.48;;;15.60;;
47365;SDS011;33105;47.964;7.982;2022-07-21T04:55:12;18.45;;;15.63;;
47365;SDS011;33105;47.964;7.982;2022-07-21T04:58:14;23.42;;;14.63;;
47365;SDS011;33105;47.964;7.982;2022-07-21T05:01:15;19.95;;;16.00;;
47365;SDS011;33105;47.964;7.982;2022-07-21T05:04:19;26.17;;;17.00;;
47365;SDS011;33105;47.964;7.982;2022-07-21T05:07:20;24.90;;;16.73;;
47365;SDS011;33105;47.964;7.982;2022-07-21T05:10:21;18.05;;;15.63;;
47365;SDS011;33105;47.964;7.982;2022-07-21T05:13:23;19.13;;;15.13;;
47365;SDS011;33105;47.964;7.982;2022-07-21T05:16:25;17.42;;;15.60;;
47365;SDS011;33105;47.964;7.982;2022-07-21T05:19:26;22.90;;;16.33;;
47365;SDS011;33105;47.964;7.982;2022-07-21T05:22:28;25.48;;;16.50;;
47365;SDS011;33105;47.964;7.982;2022-07-21T05:25:29;17.33;;;14.43;;
47365;SDS011;33105;47.964;7.982;2022-07-21T05:28:33;20.73;;;16.17;;
47365;SDS011;33105;47.964;7.982;2022-07-21T05:31:34;20.38;;;14.75;;
47365;SDS011;33105;47.964;7.982;2022-07-21T05:34:35;18.13;;;15.32;;
47365;SDS011;33105;47.964;7.982;2022-07-21T05:37:40;18.25;;;15.93;;
47365;SDS011;33105;47.964;7.982;2022-07-21T05:40:41;25.25;;;17.67;;
47365;SDS011;33105;47.964;7.982;2022-07-21T05:43:43;26.10;;;18.52;;
47365;SDS011;33105;47.964;7.982;2022-07-21T05:46:44;22.33;;;17.85;;
47365;SDS011;33105;47.964;7.982;2022-07-21T05:49:45;21.75;;;16.58;;
47365;SDS011;33105;47.964;7.982;2022-07-21T05:52:46;22.20;;;16.02;;
47365;SDS011;33105;47.964;7.982;2022-07-21T05:55:48;16.85;;;15.02;;
47365;SDS011;33105;47.964;7.982;2022-07-21T05:58:49;21.92;;;16.27;;
47365;SDS011;33105;47.964;7.982;2022-07-21T06:01:50;16.90;;;15.07;;
47365;SDS011;33105;47.964;7.982;2022-07-21T06:04:51;19.50;;;15.23;;
47365;SDS011;33105;47.964;7.982;2022-07-21T06:07:53;17.05;;;15.13;;
47365;SDS011;33105;47.964;7.982;2022-07-21T06:10:54;20.63;;;14.05;;
47365;SDS011;33105;47.964;7.982;2022-07-21T06:13:55;20.27;;;13.70;;
47365;SDS011;33105;47.964;7.982;2022-07-21T06:16:57;18.23;;;14.00;;
47365;SDS011;33105;47.964;7.982;2022-07-21T06:19:58;14.10;;;12.23;;
47365;SDS011;33105;47.964;7.982;2022-07-21T06:23:00;18.70;;;13.10;;
47365;SDS011;33105;47.964;7.982;2022-07-21T06:26:01;18.38;;;13.95;;
47365;SDS011;33105;47.964;7.982;2022-07-21T06:29:02;16.58;;;12.73;;
47365;SDS011;33105;47.964;7.982;2022-07-21T06:32:04;14.02;;;11.80;;
47365;SDS011;33105;47.964;7.982;2022-07-21T06:35:05;20.70;;;11.77;;
47365;SDS011;33105;47.964;7.982;2022-07-21T06:38:07;18.00;;;11.75;;
47365;SDS011;33105;47.964;7.982;2022-07-21T06:41:08;14.52;;;11.00;;
47365;SDS011;33105;47.964;7.982;2022-07-21T06:44:09;13.40;;;10.88;;
47365;SDS011;33105;47.964;7.982;2022-07-21T06:47:10;18.35;;;11.85;;
47365;SDS011;33105;47.964;7.982;2022-07-21T06:50:12;12.15;;;9.68;;
47365;SDS011;33105;47.964;7.982;2022-07-21T06:53:13;16.02;;;10.95;;
47365;SDS011;33105;47.964;7.982;2022-07-21T06:56:16;13.25;;;9.45;;
47365;SDS011;33105;47.964;7.982;2022-07-21T06:59:18;15.10;;;10.98;;
47365;SDS011;33105;47.964;7.982;2022-07-21T07:02:19;10.55;;;8.70;;
47365;SDS011;33105;47.964;7.982;2022-07-21T07:05:20;14.80;;;9.40;;
47365;SDS011;33105;47.964;7.982;2022-07-21T07:08:22;13.13;;;9.65;;
47365;SDS011;33105;47.964;7.982;2022-07-21T07:11:23;11.98;;;8.65;;
47365;SDS011;33105;47.964;7.982;2022-07-21T07:14:24;10.88;;;7.22;;
47365;SDS011;33105;47.964;7.982;2022-07-21T07:17:26;9.43;;;6.18;;
47365;SDS011;33105;47.964;7.982;2022-07-21T07:20:27;8.30;;;6.78;;
47365;SDS011;33105;47.964;7.982;2022-07-21T07:23:28;7.75;;;5.80;;
47365;SDS011;33105;47.964;7.982;2022-07-21T07:26:29;11.80;;;5.28;;
47365;SDS011;33105;47.964;7.982;2022-07-21T07:29:30;9.15;;;5.60;;
47365;SDS011;33105;47.964;7.982;2022-07-21T07:32:32;8.32;;;6.15;;
47365;SDS011;33105;47.964;7.982;2022-07-21T07:35:33;9.38;;;6.30;;
47365;SDS011;33105;47.964;7.982;2022-07-21T07:38:34;8.48;;;4.78;;
47365;SDS011;33105;47.964;7.982;2022-07-21T07:41:36;12.68;;;4.90;;
47365;SDS011;33105;47.964;7.982;2022-07-21T07:44:37;9.18;;;4.55;;
47365;SDS011;33105;47.964;7.982;2022-07-21T07:47:38;7.32;;;4.07;;
47365;SDS011;33105;47.964;7.982;2022-07-21T07:50:40;8.48;;;4.65;;
47365;SDS011;33105;47.964;7.982;2022-07-21T07:53:41;8.27;;;4.60;;
47365;SDS011;33105;47.964;7.982;2022-07-21T07:56:42;11.07;;;3.50;;
47365;SDS011;33105;47.964;7.982;2022-07-21T07:59:44;6.18;;;4.15;;
47365;SDS011;33105;47.964;7.982;2022-07-21T08:02:45;7.63;;;5.07;;
47365;SDS011;33105;47.964;7.982;2022-07-21T08:05:46;6.65;;;4.30;;
47365;SDS011;33105;47.964;7.982;2022-07-21T08:08:48;6.45;;;4.07;;
47365;SDS011;33105;47.964;7.982;2022-07-21T08:11:49;9.88;;;6.07;;
47365;SDS011;33105;47.964;7.982;2022-07-21T08:14:51;11.68;;;7.13;;
47365;SDS011;33105;47.964;7.982;2022-07-21T08:17:53;9.90;;;6.68;;
47365;SDS011;33105;47.964;7.982;2022-07-21T08:20:54;8.32;;;5.85;;
47365;SDS011;33105;47.964;7.982;2022-07-21T08:23:55;8.45;;;5.85;;
47365;SDS011;33105;47.964;7.982;2022-07-21T08:26:57;9.07;;;5.20;;
47365;SDS011;33105;47.964;7.982;2022-07-21T08:29:59;13.80;;;5.00;;
47365;SDS011;33105;47.964;7.982;2022-07-21T08:33:00;12.40;;;4.93;;
47365;SDS011;33105;47.964;7.982;2022-07-21T08:36:02;7.03;;;4.57;;
47365;SDS011;33105;47.964;7.982;2022-07-21T08:39:04;4.65;;;3.45;;
47365;SDS011;33105;47.964;7.982;2022-07-21T08:42:08;5.28;;;3.58;;
47365;SDS011;33105;47.964;7.982;2022-07-21T08:45:09;5.45;;;3.00;;
47365;SDS011;33105;47.964;7.982;2022-07-21T08:48:11;5.82;;;3.47;;
47365;SDS011;33105;47.964;7.982;2022-07-21T08:51:12;5.90;;;3.20;;
47365;SDS011;33105;47.964;7.982;2022-07-21T08:54:16;4.53;;;3.10;;
47365;SDS011;33105;47.964;7.982;2022-07-21T08:57:17;5.82;;;3.20;;
47365;SDS011;33105;47.964;7.982;2022-07-21T09:00:18;6.20;;;3.50;;
47365;SDS011;33105;47.964;7.982;2022-07-21T09:03:21;6.35;;;3.70;;
47365;SDS011;33105;47.964;7.982;2022-07-21T09:06:23;9.20;;;3.20;;
47365;SDS011;33105;47.964;7.982;2022-07-21T09:09:27;7.15;;;3.28;;
47365;SDS011;33105;47.964;7.982;2022-07-21T09:12:29;5.97;;;3.17;;
47365;SDS011;33105;47.964;7.982;2022-07-21T09:15:31;3.58;;;3.03;;
47365;SDS011;33105;47.964;7.982;2022-07-21T09:18:33;4.45;;;3.08;;
47365;SDS011;33105;47.964;7.982;2022-07-21T09:21:35;4.28;;;2.92;;
47365;SDS011;33105;47.964;7.982;2022-07-21T09:24:37;6.18;;;3.38;;
47365;SDS011;33105;47.964;7.982;2022-07-21T09:27:42;4.82;;;3.42;;
47365;SDS011;33105;47.964;7.982;2022-07-21T09:30:56;2.72;;;2.47;;
47365;SDS011;33105;47.964;7.982;2022-07-21T09:34:06;6.97;;;3.22;;
47365;SDS011;33105;47.964;7.982;2022-07-21T09:37:15;6.43;;;3.20;;
47365;SDS011;33105;47.964;7.982;2022-07-21T09:40:17;5.45;;;3.25;;
47365;SDS011;33105;47.964;7.982;2022-07-21T09:43:31;5.32;;;2.92;;
47365;SDS011;33105;47.964;7.982;2022-07-21T09:46:33;6.35;;;3.10;;
47365;SDS011;33105;47.964;7.982;2022-07-21T09:49:36;7.97;;;3.17;;
47365;SDS011;33105;47.964;7.982;2022-07-21T09:52:38;6.03;;;3.08;;
47365;SDS011;33105;47.964;7.982;2022-07-21T09:55:41;8.70;;;2.80;;
47365;SDS011;33105;47.964;7.982;2022-07-21T09:58:46;6.47;;;2.97;;
47365;SDS011;33105;47.964;7.982;2022-07-21T10:01:48;7.15;;;2.80;;
47365;SDS011;33105;47.964;7.982;2022-07-21T10:05:08;5.28;;;2.90;;
47365;SDS011;33105;47.964;7.982;2022-07-21T10:08:12;6.75;;;3.00;;
47365;SDS011;33105;47.964;7.982;2022-07-21T10:11:13;9.98;;;3.28;;
47365;SDS011;33105;47.964;7.982;2022-07-21T10:14:15;4.90;;;2.70;;
47365;SDS011;33105;47.964;7.982;2022-07-21T10:17:17;5.47;;;2.88;;
47365;SDS011;33105;47.964;7.982;2022-07-21T10:20:27;4.55;;;3.38;;
47365;SDS011;33105;47.964;7.982;2022-07-21T10:23:40;5.78;;;3.67;;
47365;SDS011;33105;47.964;7.982;2022-07-21T10:27:02;8.50;;;3.60;;
47365;SDS011;33105;47.964;7.982;2022-07-21T10:30:08;5.28;;;3.22;;
47365;SDS011;33105;47.964;7.982;2022-07-21T10:33:10;9.63;;;3.75;;
47365;SDS011;33105;47.964;7.982;2022-07-21T10:39:30;5.43;;;3.00;;
47365;SDS011;33105;47.964;7.982;2022-07-21T10:42:32;3.65;;;2.50;;
47365;SDS011;33105;47.964;7.982;2022-07-21T10:45:34;5.35;;;3.05;;
47365;SDS011;33105;47.964;7.982;2022-07-21T10:51:40;4.43;;;2.60;;
47365;SDS011;33105;47.964;7.982;2022-07-21T10:54:42;3.88;;;2.63;;
47365;SDS011;33105;47.964;7.982;2022-07-21T11:01:23;6.57;;;2.80;;
47365;SDS011;33105;47.964;7.982;2022-07-21T11:04:28;3.80;;;2.60;;
47365;SDS011;33105;47.964;7.982;2022-07-21T11:11:25;4.93;;;2.42;;
47365;SDS011;33105;47.964;7.982;2022-07-21T11:14:35;6.15;;;2.58;;
47365;SDS011;33105;47.964;7.982;2022-07-21T11:17:44;2.83;;;2.22;;
47365;SDS011;33105;47.964;7.982;2022-07-21T11:24:17;3.70;;;2.20;;
47365;SDS011;33105;47.964;7.982;2022-07-21T11:27:20;5.60;;;2.22;;
47365;SDS011;33105;47.964;7.982;2022-07-21T11:30:22;2.72;;;1.80;;
47365;SDS011;33105;47.964;7.982;2022-07-21T11:33:24;6.13;;;2.20;;
47365;SDS011;33105;47.964;7.982;2022-07-21T11:36:30;5.38;;;2.30;;
47365;SDS011;33105;47.964;7.982;2022-07-21T11:39:35;5.43;;;2.15;;
47365;SDS011;33105;47.964;7.982;2022-07-21T11:42:36;4.68;;;2.13;;
47365;SDS011;33105;47.964;7.982;2022-07-21T11:45:38;3.90;;;2.05;;
47365;SDS011;33105;47.964;7.982;2022-07-21T11:48:40;3.20;;;2.30;;
47365;SDS011;33105;47.964;7.982;2022-07-21T11:51:45;4.15;;;2.45;;
47365;SDS011;33105;47.964;7.982;2022-07-21T11:55:20;5.53;;;2.08;;
47365;SDS011;33105;47.964;7.982;2022-07-21T11:58:21;3.63;;;2.35;;
47365;SDS011;33105;47.964;7.982;2022-07-21T12:01:23;3.03;;;1.98;;
47365;SDS011;33105;47.964;7.982;2022-07-21T12:07:49;5.35;;;2.30;;
47365;SDS011;33105;47.964;7.982;2022-07-21T12:11:03;5.38;;;2.20;;
47365;SDS011;33105;47.964;7.982;2022-07-21T12:14:06;2.78;;;1.85;;
47365;SDS011;33105;47.964;7.982;2022-07-21T12:17:08;4.97;;;1.90;;
47365;SDS011;33105;47.964;7.982;2022-07-21T12:20:09;5.82;;;2.33;;
47365;SDS011;33105;47.964;7.982;2022-07-21T12:26:24;4.70;;;2.70;;
47365;SDS011;33105;47.964;7.982;2022-07-21T12:29:26;5.53;;;2.33;;
47365;SDS011;33105;47.964;7.982;2022-07-21T12:32:44;4.82;;;2.30;;
47365;SDS011;33105;47.964;7.982;2022-07-21T12:35:58;5.10;;;2.03;;
47365;SDS011;33105;47.964;7.982;2022-07-21T12:39:12;4.90;;;2.20;;
47365;SDS011;33105;47.964;7.982;2022-07-21T12:42:51;6.47;;;2.30;;
47365;SDS011;33105;47.964;7.982;2022-07-21T12:46:14;3.28;;;2.20;;
47365;SDS011;33105;47.964;7.982;2022-07-21T12:49:18;3.53;;;2.35;;
47365;SDS011;33105;47.964;7.982;2022-07-21T12:52:19;3.20;;;2.00;;
47365;SDS011;33105;47.964;7.982;2022-07-21T12:55:20;4.68;;;2.25;;
47365;SDS011;33105;47.964;7.982;2022-07-21T12:58:22;3.53;;;2.22;;
47365;SDS011;33105;47.964;7.982;2022-07-21T13:01:23;2.85;;;2.10;;
47365;SDS011;33105;47.964;7.982;2022-07-21T13:04:26;5.25;;;2.15;;
47365;SDS011;33105;47.964;7.982;2022-07-21T13:07:27;4.57;;;2.03;;
47365;SDS011;33105;47.964;7.982;2022-07-21T13:10:28;3.90;;;2.00;;
47365;SDS011;33105;47.964;7.982;2022-07-21T13:13:30;5.43;;;2.20;;
47365;SDS011;33105;47.964;7.982;2022-07-21T13:16:32;4.88;;;2.10;;
47365;SDS011;33105;47.964;7.982;2022-07-21T13:19:33;3.70;;;2.00;;
47365;SDS011;33105;47.964;7.982;2022-07-21T13:22:37;7.65;;;2.35;;
47365;SDS011;33105;47.964;7.982;2022-07-21T13:25:38;3.97;;;2.38;;
47365;SDS011;33105;47.964;7.982;2022-07-21T13:28:39;2.33;;;2.13;;
47365;SDS011;33105;47.964;7.982;2022-07-21T13:31:41;7.05;;;2.60;;
47365;SDS011;33105;47.964;7.982;2022-07-21T13:34:42;5.88;;;2.60;;
47365;SDS011;33105;47.964;7.982;2022-07-21T13:37:43;4.20;;;2.20;;
47365;SDS011;33105;47.964;7.982;2022-07-21T13:40:45;2.55;;;2.08;;
47365;SDS011;33105;47.964;7.982;2022-07-21T13:43:47;4.80;;;2.45;;
47365;SDS011;33105;47.964;7.982;2022-07-21T13:46:48;4.07;;;2.25;;
47365;SDS011;33105;47.964;7.982;2022-07-21T13:49:49;6.63;;;2.38;;
47365;SDS011;33105;47.964;7.982;2022-07-21T13:52:51;3.88;;;2.33;;
47365;SDS011;33105;47.964;7.982;2022-07-21T13:55:52;6.72;;;2.53;;
47365;SDS011;33105;47.964;7.982;2022-07-21T13:58:54;3.30;;;2.38;;
47365;SDS011;33105;47.964;7.982;2022-07-21T14:01:56;4.18;;;2.65;;
47365;SDS011;33105;47.964;7.982;2022-07-21T14:04:57;4.00;;;2.53;;
47365;SDS011;33105;47.964;7.982;2022-07-21T14:07:59;5.78;;;2.67;;
47365;SDS011;33105;47.964;7.982;2022-07-21T14:11:00;5.22;;;2.70;;
47365;SDS011;33105;47.964;7.982;2022-07-21T14:14:01;5.32;;;2.17;;
47365;SDS011;33105;47.964;7.982;2022-07-21T14:17:03;5.20;;;2.67;;
47365;SDS011;33105;47.964;7.982;2022-07-21T14:20:04;4.55;;;1.90;;
47365;SDS011;33105;47.964;7.982;2022-07-21T14:23:06;4.50;;;2.22;;
47365;SDS011;33105;47.964;7.982;2022-07-21T14:26:07;2.67;;;2.03;;
47365;SDS011;33105;47.964;7.982;2022-07-21T14:29:09;3.50;;;2.15;;
47365;SDS011;33105;47.964;7.982;2022-07-21T14:32:10;5.68;;;2.15;;
47365;SDS011;33105;47.964;7.982;2022-07-21T14:35:11;6.88;;;2.20;;
47365;SDS011;33105;47.964;7.982;2022-07-21T14:38:15;3.15;;;2.05;;
47365;SDS011;33105;47.964;7.982;2022-07-21T14:41:18;2.53;;;2.15;;
47365;SDS011;33105;47.964;7.982;2022-07-21T14:44:19;4.43;;;2.50;;
47365;SDS011;33105;47.964;7.982;2022-07-21T14:47:20;3.45;;;2.10;;
47365;SDS011;33105;47.964;7.982;2022-07-21T14:50:24;2.80;;;2.28;;
47365;SDS011;33105;47.964;7.982;2022-07-21T14:53:26;3.25;;;2.13;;
47365;SDS011;33105;47.964;7.982;2022-07-21T14:56:27;6.10;;;2.38;;
47365;SDS011;33105;47.964;7.982;2022-07-21T14:59:29;3.05;;;2.20;;
47365;SDS011;33105;47.964;7.982;2022-07-21T15:02:30;5.28;;;2.80;;
47365;SDS011;33105;47.964;7.982;2022-07-21T15:05:31;4.63;;;2.13;;
47365;SDS011;33105;47.964;7.982;2022-07-21T15:08:32;4.55;;;2.60;;
47365;SDS011;33105;47.964;7.982;2022-07-21T15:11:34;4.20;;;2.45;;
47365;SDS011;33105;47.964;7.982;2022-07-21T15:14:35;3.88;;;2.42;;
47365;SDS011;33105;47.964;7.982;2022-07-21T15:17:37;5.22;;;2.53;;
47365;SDS011;33105;47.964;7.982;2022-07-21T15:20:39;3.53;;;2.22;;
47365;SDS011;33105;47.964;7.982;2022-07-21T15:23:40;6.18;;;2.17;;
47365;SDS011;33105;47.964;7.982;2022-07-21T15:26:42;4.22;;;2.33;;
47365;SDS011;33105;47.964;7.982;2022-07-21T15:29:44;5.45;;;2.63;;
47365;SDS011;33105;47.964;7.982;2022-07-21T15:32:45;2.80;;;1.85;;
47365;SDS011;33105;47.964;7.982;2022-07-21T15:35:46;3.42;;;2.00;;
47365;SDS011;33105;47.964;7.982;2022-07-21T15:38:47;2.63;;;2.20;;
47365;SDS011;33105;47.964;7.982;2022-07-21T15:41:49;4.10;;;2.10;;
47365;SDS011;33105;47.964;7.982;2022-07-21T15:44:51;3.92;;;2.35;;
47365;SDS011;33105;47.964;7.982;2022-07-21T15:47:52;2.58;;;1.95;;
47365;SDS011;33105;47.964;7.982;2022-07-21T15:50:53;11.98;;;2.75;;
47365;SDS011;33105;47.964;7.982;2022-07-21T15:53:55;3.35;;;2.22;;
47365;SDS011;33105;47.964;7.982;2022-07-21T15:56:57;2.28;;;2.08;;
47365;SDS011;33105;47.964;7.982;2022-07-21T15:59:58;3.88;;;2.40;;
47365;SDS011;33105;47.964;7.982;2022-07-21T16:03:00;5.38;;;2.20;;
47365;SDS011;33105;47.964;7.982;2022-07-21T16:06:01;8.15;;;2.55;;
47365;SDS011;33105;47.964;7.982;2022-07-21T16:09:03;4.40;;;2.17;;
47365;SDS011;33105;47.964;7.982;2022-07-21T16:12:05;5.72;;;2.40;;
47365;SDS011;33105;47.964;7.982;2022-07-21T16:15:08;6.10;;;2.33;;
47365;SDS011;33105;47.964;7.982;2022-07-21T16:18:11;3.33;;;2.40;;
47365;SDS011;33105;47.964;7.982;2022-07-21T16:21:12;4.18;;;2.50;;
47365;SDS011;33105;47.964;7.982;2022-07-21T16:24:14;7.57;;;2.20;;
47365;SDS011;33105;47.964;7.982;2022-07-21T16:27:15;7.63;;;2.10;;
47365;SDS011;33105;47.964;7.982;2022-07-21T16:30:17;5.20;;;2.40;;
47365;SDS011;33105;47.964;7.982;2022-07-21T16:33:19;4.22;;;2.05;;
47365;SDS011;33105;47.964;7.982;2022-07-21T16:36:20;3.40;;;2.38;;
47365;SDS011;33105;47.964;7.982;2022-07-21T16:39:21;4.93;;;2.50;;
47365;SDS011;33105;47.964;7.982;2022-07-21T16:42:22;4.47;;;2.50;;
47365;SDS011;33105;47.964;7.982;2022-07-21T16:45:24;4.80;;;2.40;;
47365;SDS011;33105;47.964;7.982;2022-07-21T16:48:26;4.10;;;2.30;;
47365;SDS011;33105;47.964;7.982;2022-07-21T16:51:27;5.18;;;2.25;;
47365;SDS011;33105;47.964;7.982;2022-07-21T16:54:28;7.43;;;2.50;;
47365;SDS011;33105;47.964;7.982;2022-07-21T16:57:30;5.88;;;2.47;;
47365;SDS011;33105;47.964;7.982;2022-07-21T17:00:31;5.93;;;2.47;;
47365;SDS011;33105;47.964;7.982;2022-07-21T17:03:32;2.63;;;2.42;;
47365;SDS011;33105;47.964;7.982;2022-07-21T17:06:33;3.90;;;2.53;;
47365;SDS011;33105;47.964;7.982;2022-07-21T17:09:35;5.90;;;2.88;;
47365;SDS011;33105;47.964;7.982;2022-07-21T17:12:37;4.60;;;2.58;;
47365;SDS011;33105;47.964;7.982;2022-07-21T17:15:38;3.75;;;2.60;;
47365;SDS011;33105;47.964;7.982;2022-07-21T17:18:39;3.20;;;2.25;;
47365;SDS011;33105;47.964;7.982;2022-07-21T17:21:40;3.70;;;2.10;;
47365;SDS011;33105;47.964;7.982;2022-07-21T17:24:42;3.95;;;2.40;;
47365;SDS011;33105;47.964;7.982;2022-07-21T17:27:43;6.00;;;2.80;;
47365;SDS011;33105;47.964;7.982;2022-07-21T17:30:44;7.60;;;2.50;;
47365;SDS011;33105;47.964;7.982;2022-07-21T17:33:45;3.20;;;2.40;;
47365;SDS011;33105;47.964;7.982;2022-07-21T17:36:47;4.05;;;2.40;;
47365;SDS011;33105;47.964;7.982;2022-07-21T17:39:48;9.55;;;3.22;;
47365;SDS011;33105;47.964;7.982;2022-07-21T17:42:49;3.78;;;2.30;;
47365;SDS011;33105;47.964;7.982;2022-07-21T17:45:52;5.50;;;2.60;;
47365;SDS011;33105;47.964;7.982;2022-07-21T17:48:54;6.55;;;2.50;;
47365;SDS011;33105;47.964;7.982;2022-07-21T17:51:55;3.83;;;2.47;;
47365;SDS011;33105;47.964;7.982;2022-07-21T17:54:56;2.90;;;2.60;;
47365;SDS011;33105;47.964;7.982;2022-07-21T17:57:58;3.42;;;2.38;;
47365;SDS011;33105;47.964;7.982;2022-07-21T18:01:18;5.00;;;2.70;;
47365;SDS011;33105;47.964;7.982;2022-07-21T18:04:24;10.57;;;2.72;;
47365;SDS011;33105;47.964;7.982;2022-07-21T18:07:25;4.32;;;2.50;;
47365;SDS011;33105;47.964;7.982;2022-07-21T18:10:27;3.58;;;2.55;;
47365;SDS011;33105;47.964;7.982;2022-07-21T18:13:28;4.50;;;2.45;;
47365;SDS011;33105;47.964;7.982;2022-07-21T18:16:31;3.67;;;2.35;;
47365;SDS011;33105;47.964;7.982;2022-07-21T18:19:32;2.30;;;2.10;;
47365;SDS011;33105;47.964;7.982;2022-07-21T18:22:33;4.07;;;2.35;;
47365;SDS011;33105;47.964;7.982;2022-07-21T18:25:34;4.28;;;2.60;;
47365;SDS011;33105;47.964;7.982;2022-07-21T18:28:36;4.47;;;2.80;;
47365;SDS011;33105;47.964;7.982;2022-07-21T18:31:37;6.30;;;2.80;;
47365;SDS011;33105;47.964;7.982;2022-07-21T18:34:38;4.95;;;2.58;;